Weather reports worldwide

Advertisment
Comiso, Italy (16475): temperature & dewpoint: 12.09.2019 05:00:00 - 18.09.2019 05:00:00 (CEST)Comiso, Italy (16475): wind speed: 12.09.2019 05:00:00 - 18.09.2019 05:00:00 (CEST)Comiso, Italy (16475): wind direction: 12.09.2019 05:00:00 - 18.09.2019 05:00:00 (CEST)Comiso, Italy (16475): visibility: 12.09.2019 05:00:00 - 18.09.2019 05:00:00 (CEST)
Date & Time tt [°C] td [°C] ff [km/h] ff [kn] dd vv [km]
18.09.2019 05:00:00 21,0 19,0 4 2 - 10
18.09.2019 04:00:00 21,0 19,0 5 3 ESE 10
18.09.2019 03:00:00 - - - - - -
18.09.2019 02:00:00 19,0 18,0 5 3 E 10
18.09.2019 01:00:00 20,0 18,0 5 3 E 10
18.09.2019 00:00:00 20,0 18,0 5 3 E 10
17.09.2019 23:00:00 21,0 18,0 5 3 ESE 10
17.09.2019 22:00:00 21,0 18,0 5 3 E 10
17.09.2019 21:00:00 22,0 18,0 0 0 N 10
17.09.2019 20:00:00 23,0 18,0 5 3 W 10
17.09.2019 19:00:00 24,0 18,0 11 6 W 10
17.09.2019 18:00:00 26,0 18,0 13 7 W 10
17.09.2019 17:00:00 26,0 17,0 15 8 W 10
17.09.2019 16:00:00 27,0 16,0 16 9 W 10
17.09.2019 15:00:00 28,0 15,0 16 9 W 10
17.09.2019 14:00:00 28,0 13,0 15 8 WSW 10
17.09.2019 13:00:00 28,0 15,0 13 7 WSW 10
17.09.2019 12:00:00 27,0 16,0 9 5 WSW 10
17.09.2019 11:00:00 27,0 16,0 5 3 - 10
17.09.2019 10:00:00 25,0 16,0 4 2 - 10
17.09.2019 09:00:00 23,0 15,0 2 1 - 10
17.09.2019 08:00:00 18,0 13,0 4 2 E 10
17.09.2019 07:00:00 16,0 13,0 8 4 ENE 10
17.09.2019 06:00:00 16,0 13,0 9 5 ENE 10
17.09.2019 05:00:00 16,0 13,0 5 3 ENE 10
17.09.2019 04:00:00 17,0 13,0 9 5 ENE 10
17.09.2019 03:00:00 16,0 13,0 5 3 ENE 10
17.09.2019 02:00:00 17,0 14,0 9 5 ENE 10
17.09.2019 01:00:00 17,0 14,0 8 4 ENE 10
17.09.2019 00:00:00 18,0 14,0 5 3 ENE 10
16.09.2019 23:00:00 20,0 16,0 5 3 E 10
16.09.2019 22:00:00 20,0 17,0 5 3 ESE 10
16.09.2019 21:00:00 21,0 17,0 2 1 - 10
16.09.2019 20:00:00 23,0 17,0 4 2 - 10
16.09.2019 19:00:00 24,0 17,0 13 7 W 10
16.09.2019 18:00:00 26,0 15,0 15 8 W 10
16.09.2019 17:00:00 27,0 15,0 16 9 WSW 10
16.09.2019 16:00:00 28,0 14,0 16 9 WSW 10
16.09.2019 15:00:00 28,0 14,0 15 8 SW 10
16.09.2019 14:00:00 28,0 14,0 15 8 WSW 10
16.09.2019 13:00:00 29,0 14,0 13 7 - 10
16.09.2019 12:00:00 28,0 13,0 8 4 SW 10
16.09.2019 11:00:00 27,0 12,0 8 4 SW 10
16.09.2019 10:00:00 26,0 13,0 4 2 - 10
16.09.2019 09:00:00 24,0 12,0 2 1 - 10
16.09.2019 08:00:00 18,0 13,0 9 5 NE 10
16.09.2019 07:00:00 16,0 12,0 5 3 ENE 10
16.09.2019 06:00:00 16,0 13,0 8 4 ENE 10
16.09.2019 05:00:00 17,0 14,0 8 4 ENE 10
16.09.2019 04:00:00 - - - - - -
16.09.2019 03:00:00 16,0 14,0 5 3 ENE 10
16.09.2019 02:00:00 17,0 14,0 5 3 ENE 10
16.09.2019 01:00:00 18,0 16,0 9 5 ENE 10
16.09.2019 00:00:00 19,0 17,0 9 5 NE 10
15.09.2019 23:00:00 20,0 17,0 8 4 ENE 10
15.09.2019 22:00:00 21,0 18,0 4 2 ENE 10
15.09.2019 21:00:00 22,0 20,0 2 1 - 10
15.09.2019 20:00:00 23,0 20,0 8 4 WSW 10
15.09.2019 19:00:00 25,0 17,0 11 6 WSW 10
15.09.2019 18:00:00 26,0 17,0 13 7 WSW 10
15.09.2019 17:00:00 27,0 16,0 13 7 WSW 10
15.09.2019 16:00:00 27,0 15,0 15 8 WSW 10
15.09.2019 15:00:00 28,0 15,0 18 10 WSW 10
15.09.2019 14:00:00 29,0 16,0 16 9 SW 10
15.09.2019 13:00:00 29,0 13,0 5 3 - 10
15.09.2019 12:00:00 28,0 11,0 8 4 SSW 10
15.09.2019 11:00:00 28,0 11,0 4 2 - 10
15.09.2019 10:00:00 26,0 12,0 4 2 - 10
15.09.2019 09:00:00 24,0 12,0 4 2 - 10
15.09.2019 08:00:00 18,0 12,0 4 2 ENE 10
15.09.2019 07:00:00 16,0 11,0 4 2 - 10
15.09.2019 06:00:00 17,0 11,0 9 5 NE 10
15.09.2019 05:00:00 17,0 11,0 9 5 ENE 10
15.09.2019 04:00:00 16,0 11,0 9 5 NE 10
15.09.2019 03:00:00 17,0 13,0 8 4 ENE 10
15.09.2019 02:00:00 17,0 13,0 8 4 E 10
15.09.2019 01:00:00 18,0 15,0 8 4 ENE 10
15.09.2019 00:00:00 18,0 15,0 9 5 ENE 10
14.09.2019 23:00:00 19,0 16,0 4 2 E 10
14.09.2019 22:00:00 20,0 17,0 2 1 ENE 10
14.09.2019 21:00:00 22,0 19,0 4 2 - 10
14.09.2019 20:00:00 23,0 19,0 5 3 WSW 10
14.09.2019 19:00:00 25,0 17,0 13 7 WSW 10
14.09.2019 18:00:00 26,0 18,0 15 8 W 10
14.09.2019 17:00:00 27,0 16,0 15 8 W 10
14.09.2019 16:00:00 28,0 14,0 16 9 WSW 10
14.09.2019 15:00:00 28,0 14,0 21 11 WSW 10
14.09.2019 14:00:00 29,0 12,0 18 10 WSW 10
14.09.2019 13:00:00 - - - - - -
14.09.2019 12:00:00 29,0 11,0 8 4 NNW 10
14.09.2019 11:00:00 29,0 10,0 4 2 - 10
14.09.2019 10:00:00 27,0 11,0 4 2 - 10
14.09.2019 09:00:00 24,0 15,0 4 2 - 10
14.09.2019 08:00:00 19,0 14,0 9 5 ENE 10
14.09.2019 07:00:00 17,0 13,0 11 6 ENE 10
14.09.2019 06:00:00 17,0 14,0 9 5 ENE 10
14.09.2019 05:00:00 18,0 14,0 9 5 ENE 10
14.09.2019 04:00:00 18,0 14,0 9 5 ENE 10
14.09.2019 03:00:00 18,0 14,0 5 3 ENE 10
14.09.2019 02:00:00 18,0 14,0 8 4 ENE 10
14.09.2019 01:00:00 19,0 15,0 9 5 ENE 10
14.09.2019 00:00:00 19,0 15,0 8 4 ENE 10
13.09.2019 23:00:00 21,0 17,0 5 3 ENE 10
13.09.2019 22:00:00 21,0 18,0 5 3 ENE 10
13.09.2019 21:00:00 23,0 19,0 5 3 SE 10
13.09.2019 20:00:00 24,0 19,0 4 2 WSW 10
13.09.2019 19:00:00 25,0 18,0 11 6 WSW 10
13.09.2019 18:00:00 27,0 17,0 16 9 W 10
13.09.2019 17:00:00 28,0 16,0 16 9 WSW 10
13.09.2019 16:00:00 28,0 17,0 15 8 WSW 10
13.09.2019 15:00:00 29,0 16,0 18 10 WSW 10
13.09.2019 14:00:00 29,0 16,0 22 12 WSW 10
13.09.2019 13:00:00 30,0 15,0 15 8 SW 10
13.09.2019 12:00:00 30,0 11,0 13 7 NE 10
13.09.2019 11:00:00 28,0 13,0 13 7 NNE 10
13.09.2019 10:00:00 27,0 12,0 16 9 NNE 10
13.09.2019 09:00:00 24,0 15,0 11 6 NE 10
13.09.2019 08:00:00 20,0 16,0 8 4 NE 10
13.09.2019 07:00:00 18,0 16,0 9 5 NE 9
13.09.2019 06:00:00 18,0 17,0 13 7 ENE 10
13.09.2019 05:00:00 18,0 17,0 8 4 NE 10
13.09.2019 04:00:00 19,0 18,0 11 6 ENE 9
13.09.2019 03:00:00 20,0 18,0 4 2 - 10
13.09.2019 02:00:00 22,0 20,0 2 1 - 10
13.09.2019 01:00:00 22,0 19,0 5 3 E 10
13.09.2019 00:00:00 22,0 19,0 4 2 E 10
12.09.2019 23:00:00 22,0 19,0 4 2 E 10
12.09.2019 22:00:00 22,0 19,0 2 1 - 10
12.09.2019 21:00:00 23,0 19,0 2 1 - 10
12.09.2019 20:00:00 - - - - - -
12.09.2019 19:00:00 25,0 19,0 16 9 WSW 10
12.09.2019 18:00:00 27,0 19,0 16 9 WSW 10
12.09.2019 17:00:00 29,0 18,0 16 9 WSW 10
12.09.2019 16:00:00 29,0 17,0 16 9 SW 10
12.09.2019 15:00:00 30,0 17,0 15 8 WSW 10
12.09.2019 14:00:00 31,0 16,0 11 6 W 10
12.09.2019 13:00:00 - - - - - -
12.09.2019 12:00:00 - - - - - -
12.09.2019 11:00:00 27,0 18,0 4 2 - 10
12.09.2019 10:00:00 27,0 17,0 4 2 - 10
12.09.2019 09:00:00 25,0 18,0 5 3 E 10
12.09.2019 08:00:00 19,0 17,0 5 3 E 10
12.09.2019 07:00:00 18,0 17,0 4 2 - 10
12.09.2019 06:00:00 18,0 17,0 4 2 - 10
12.09.2019 05:00:00 18,0 16,0 5 3 NNE 10

tt = temperature
td = dewpoint
ff = wind speed
dd = wind direction
vv = visibility

Next stations